Terminal Aerodrome Forecast
Issued by NWS

Home | Current Version | Previous Version | Text Only | Print | Product List | Glossary On
Versions: 1 2 3 4 5 6 7 8 9 10 11 12 13
000
FTUS43 KDTX 192300
TAFDET
TAF
KDET 192320Z 2000/2024 10008KT P6SM SKC
     FM200200 07005KT P6SM SCT250
     FM201500 16007KT P6SM SCT250=

USA.gov is the U.S. government's official web portal to all federal, state and local government web resources and services.